Time;durP1;ratioP1;P1;durP2;ratioP2;P2;SDS_P1;SDS_P2;PMS_P1;PMS_P2;Temp;Humidity;BMP_temperature;BMP_pressure;BME280_temperature;BME280_humidity;BME280_pressure;Samples;Min_cycle;Max_cycle;Signal;HPM_P1;HPM_P2
2022/08/21 00:01:27;;;;;;;2.60;2.20;;;22.60;58.60;;;22.98;40.90;98738.41;5023840;27;124280;-76
2022/08/21 00:03:54;;;;;;;3.50;2.13;;;22.60;58.90;;;22.94;40.88;98747.66;5018390;28;123848;-76
2022/08/21 00:06:23;;;;;;;3.03;2.50;;;22.60;59.20;;;22.92;41.12;98743.59;5009902;28;111112;-76
2022/08/21 00:08:51;;;;;;;3.30;2.27;;;22.60;59.40;;;22.88;41.22;98746.38;5012601;28;111371;-76
2022/08/21 00:11:18;;;;;;;3.53;2.00;;;22.50;59.50;;;22.87;41.22;98746.81;5019278;28;124064;-76
2022/08/21 00:13:45;;;;;;;3.40;1.90;;;22.50;59.70;;;22.85;41.39;98743.56;5029879;28;123313;-76
2022/08/21 00:16:12;;;;;;;3.93;2.37;;;22.50;59.80;;;22.83;41.81;98745.97;5017676;28;109775;-76
2022/08/21 00:18:38;;;;;;;5.70;2.47;;;22.40;59.80;;;22.80;41.45;98736.28;5020357;28;110866;-75
2022/08/21 00:21:05;;;;;;;4.97;2.97;;;22.40;59.90;;;22.78;41.61;98737.91;5010628;28;123214;-75
2022/08/21 00:23:34;;;;;;;2.57;2.23;;;22.40;60.10;;;22.76;41.68;98734.69;5023032;28;124446;-76
2022/08/21 00:26:01;;;;;;;4.70;2.30;;;22.00;59.90;;;22.75;41.46;98730.25;5013434;28;109304;-77
2022/08/21 00:28:27;;;;;;;5.23;2.80;;;22.30;60.20;;;22.71;41.83;98730.22;5015995;28;108871;-76
2022/08/21 00:30:54;;;;;;;2.93;1.80;;;22.30;60.30;;;22.68;41.54;98726.19;5021988;28;123983;-75
2022/08/21 00:33:21;;;;;;;6.00;2.90;;;22.30;60.40;;;22.64;41.75;98728.19;5029811;27;123774;-79
2022/08/21 00:35:47;;;;;;;4.17;2.67;;;22.30;60.40;;;22.62;41.82;98729.78;5034052;28;109546;-75
2022/08/21 00:38:14;;;;;;;5.00;2.33;;;22.20;60.50;;;22.59;41.87;98737.00;5017221;28;108886;-76
2022/08/21 00:40:55;;;;;;;3.40;2.70;;;22.20;60.60;;;22.57;41.89;98721.69;5013036;28;124308;-77
2022/08/21 00:43:27;;;;;;;4.10;2.00;;;22.20;60.90;;;22.55;42.28;98738.22;5012186;28;124071;-78
2022/08/21 00:45:55;;;;;;;4.50;2.57;;;22.20;61.00;;;22.52;41.92;98730.56;5018888;28;108820;-75
2022/08/21 00:48:23;;;;;;;4.80;2.50;;;22.10;61.20;;;22.49;42.27;98727.31;5012337;28;109202;-77
2022/08/21 00:51:00;;;;;;;4.23;2.07;;;22.10;61.10;;;22.47;41.98;98726.91;5012160;28;124001;-75
2022/08/21 00:53:28;;;;;;;5.47;2.40;;;22.10;61.10;;;22.44;42.13;98724.88;5012680;28;123166;-76
2022/08/21 00:55:56;;;;;;;3.20;2.20;;;22.10;61.20;;;22.40;42.29;98721.22;5025467;27;109578;-75
2022/08/21 00:58:24;;;;;;;5.90;2.20;;;22.00;61.20;;;22.38;42.24;98722.81;5024160;28;109705;-75
2022/08/21 01:00:51;;;;;;;5.27;2.13;;;22.00;61.40;;;22.36;42.34;98728.06;5026141;28;123914;-76
2022/08/21 01:03:23;;;;;;;5.10;2.70;;;22.00;61.50;;;22.34;42.58;98724.81;5028626;27;124795;-78
2022/08/21 01:05:49;;;;;;;3.50;2.40;;;21.90;61.60;;;22.33;42.53;98717.59;5024236;28;109814;-75
2022/08/21 01:08:18;;;;;;;8.60;2.10;;;21.90;61.70;;;22.30;42.72;98718.34;5017512;28;109048;-75
2022/08/21 01:10:47;;;;;;;2.67;1.80;;;21.90;61.90;;;22.28;42.94;98727.19;5011782;28;124142;-77
2022/08/21 01:13:17;;;;;;;5.63;2.40;;;21.90;62.10;;;22.23;42.72;98719.91;5011052;28;123624;-75
2022/08/21 01:15:52;;;;;;;5.87;2.17;;;21.90;62.30;;;22.21;43.00;98727.16;5017546;28;109000;-76
2022/08/21 01:18:20;;;;;;;3.63;2.60;;;21.80;62.40;;;22.17;42.99;98727.09;5010399;28;108956;-76
2022/08/21 01:21:17;;;;;;;3.90;2.40;;;21.80;62.60;;;22.14;43.29;98727.06;5012850;28;124672;-76
2022/08/21 01:23:48;;;;;;;2.40;2.20;;;21.80;62.80;;;22.12;43.12;98729.47;5043109;27;123456;-77
2022/08/21 01:26:17;;;;;;;5.10;2.40;;;21.80;63.00;;;22.11;43.50;98727.84;5015147;28;109153;-76
2022/08/21 01:29:05;;;;;;;4.60;2.90;;;21.70;63.00;;;22.08;43.17;98723.00;5018394;28;108231;-75
2022/08/21 01:31:33;;;;;;;3.67;2.57;;;21.70;63.20;;;22.05;43.45;98725.41;5019077;28;125145;-76
2022/08/21 01:34:00;;;;;;;2.87;2.40;;;21.60;63.20;;;22.03;43.71;98727.81;5020457;27;124274;-76
2022/08/21 01:36:27;;;;;;;5.40;2.80;;;21.70;63.50;;;22.01;43.70;98724.56;5014051;28;109628;-75
2022/08/21 01:38:54;;;;;;;4.30;2.80;;;21.70;63.60;;;21.99;43.59;98718.53;5013330;28;109546;-77
2022/08/21 01:41:21;;;;;;;5.37;2.57;;;21.60;63.50;;;21.97;43.54;98722.94;5016126;28;125162;-75
2022/08/21 01:43:48;;;;;;;4.00;3.00;;;21.60;63.70;;;21.94;43.65;98715.28;5010207;28;123840;-77
2022/08/21 01:46:16;;;;;;;4.37;2.30;;;21.60;63.60;;;21.93;43.82;98716.47;5020041;28;110276;-76
2022/08/21 01:48:43;;;;;;;5.83;2.77;;;21.50;63.60;;;21.90;43.62;98709.63;5025946;28;109885;-78
2022/08/21 01:51:09;;;;;;;5.07;2.17;;;21.50;63.50;;;21.89;43.76;98719.25;5019719;28;124073;-78
2022/08/21 01:53:37;;;;;;;2.50;2.20;;;21.50;63.60;;;21.88;43.29;98725.28;5018903;28;123848;-79
2022/08/21 01:56:07;;;;;;;3.30;2.37;;;21.50;63.40;;;21.86;43.36;98716.41;5019565;28;109201;-79
2022/08/21 01:58:34;;;;;;;4.10;2.63;;;21.50;63.40;;;21.82;43.21;98713.59;5017378;28;110296;-79
2022/08/21 02:01:02;;;;;;;4.60;2.50;;;21.50;63.30;;;21.81;43.28;98709.94;5017533;28;124119;-78
2022/08/21 02:03:30;;;;;;;6.00;2.40;;;21.40;64.00;;;21.78;43.65;98705.09;5021720;27;124091;-80
2022/08/21 02:05:57;;;;;;;4.00;2.50;;;21.40;63.40;;;21.78;43.44;98704.31;5010880;28;109589;-81
2022/08/21 02:08:24;;;;;;;4.23;1.97;;;21.40;63.40;;;21.77;43.48;98702.69;5014127;28;109732;-80
2022/08/21 02:10:52;;;;;;;4.07;2.43;;;21.40;63.50;;;21.74;43.70;98701.47;5012756;28;124302;-77
2022/08/21 02:13:19;;;;;;;2.50;1.90;;;21.40;63.70;;;21.73;43.76;98704.66;5012360;28;123906;-77
2022/08/21 02:15:45;;;;;;;4.17;1.93;;;21.40;63.70;;;21.71;43.63;98698.63;5021933;28;108577;-78
2022/08/21 02:18:13;;;;;;;2.90;1.97;;;21.30;63.80;;;21.70;43.54;98697.00;5040042;27;107334;-78
2022/08/21 02:20:45;;;;;;;3.20;1.90;;;21.30;64.00;;;21.69;43.88;98701.03;5019751;28;123988;-77
2022/08/21 02:23:13;;;;;;;3.80;1.80;;;21.30;64.10;;;21.66;43.90;98699.81;5010519;28;123976;-79
2022/08/21 02:25:40;;;;;;;4.40;2.30;;;21.30;64.20;;;21.63;43.82;98692.16;5026300;28;107465;-77
2022/08/21 02:28:10;;;;;;;6.83;2.53;;;21.30;64.40;;;21.59;43.99;98696.91;5017362;28;109518;-79
2022/08/21 02:30:42;;;;;;;3.30;2.47;;;21.20;64.50;;;21.54;44.20;98700.91;5012589;28;124108;-77
2022/08/21 02:33:11;;;;;;;5.70;2.60;;;21.20;64.80;;;21.49;44.33;98704.06;5018187;27;123861;-78
2022/08/21 02:35:41;;;;;;;3.10;2.10;;;21.10;65.10;;;21.44;44.54;98698.81;5018285;28;109717;-77
2022/08/21 02:38:13;;;;;;;3.67;2.30;;;21.10;65.50;;;21.37;44.92;98702.34;5011217;28;109794;-77
2022/08/21 02:40:45;;;;;;;3.87;2.40;;;21.00;65.70;;;21.30;44.96;98696.63;5010412;28;124108;-80
2022/08/21 02:43:12;;;;;;;5.57;2.70;;;20.90;65.90;;;21.27;45.05;98693.78;5010279;28;123086;-79
2022/08/21 02:45:40;;;;;;;3.77;2.20;;;20.90;66.20;;;21.24;45.30;98694.56;5028972;28;108759;-79
2022/08/21 02:48:10;;;;;;;5.03;2.53;;;20.80;66.40;;;21.21;45.45;98698.16;5011277;28;109212;-77
2022/08/21 02:50:43;;;;;;;3.00;2.57;;;20.90;66.70;;;21.18;45.66;98691.31;5021996;28;124122;-79
2022/08/21 02:53:16;;;;;;;5.90;2.60;;;20.80;67.00;;;21.16;45.51;98697.31;5010146;28;123673;-78
2022/08/21 02:55:44;;;;;;;4.00;2.20;;;20.80;67.20;;;21.15;45.69;98697.69;5012412;28;108778;-78
2022/08/21 02:58:12;;;;;;;5.17;2.17;;;20.70;67.40;;;21.14;46.22;98702.53;5031409;27;109077;-78
2022/08/21 03:00:39;;;;;;;5.00;2.27;;;20.80;67.60;;;21.14;45.97;98708.13;5029227;28;124249;-76
2022/08/21 03:03:07;;;;;;;4.37;2.57;;;20.70;67.70;;;21.10;46.17;98712.91;5023602;28;123938;-79
2022/08/21 03:05:37;;;;;;;6.70;3.00;;;20.70;67.90;;;21.05;46.39;98707.63;5010123;28;109363;-76
2022/08/21 03:08:09;;;;;;;2.67;2.17;;;20.70;68.20;;;21.00;46.67;98698.75;5024763;28;109098;-77
2022/08/21 03:10:41;;;;;;;4.93;2.43;;;20.60;68.40;;;20.96;46.69;98704.31;5021508;28;124094;-76
2022/08/21 03:13:08;;;;;;;3.53;2.33;;;20.60;68.50;;;20.92;46.94;98701.47;5023925;28;123828;-80
2022/08/21 03:15:35;;;;;;;5.50;2.27;;;20.60;68.80;;;20.89;46.72;98705.03;5010471;28;107876;-76
2022/08/21 03:18:04;;;;;;;3.07;2.20;;;20.50;69.20;;;20.87;46.96;98701.00;5019029;28;108650;-76
2022/08/21 03:20:32;;;;;;;2.70;1.90;;;20.50;69.50;;;20.84;47.17;98701.78;5012029;28;124272;-76
2022/08/21 03:22:59;;;;;;;4.60;2.13;;;20.50;69.80;;;20.82;47.44;98701.34;5019865;27;123645;-76
2022/08/21 03:25:27;;;;;;;2.23;1.80;;;20.50;70.10;;;20.82;47.61;98704.16;5040937;27;110018;-75
2022/08/21 03:28:16;;;;;;;4.20;1.80;;;20.50;70.30;;;20.79;47.62;98704.91;5019448;28;109503;-78
2022/08/21 03:30:49;;;;;;;3.93;2.10;;;20.40;70.50;;;20.78;47.71;98708.94;5011640;28;123670;-78
2022/08/21 03:33:16;;;;;;;3.77;2.20;;;20.40;70.70;;;20.80;47.54;98706.56;5012081;28;123847;-76
2022/08/21 03:35:49;;;;;;;4.53;2.00;;;20.40;71.60;;;20.78;47.73;98706.13;5014233;28;109522;-76
2022/08/21 03:38:16;;;;;;;7.43;2.67;;;20.30;70.90;;;20.77;47.62;98702.50;5018473;28;108975;-75
2022/08/21 03:40:43;;;;;;;3.50;2.37;;;20.40;71.00;;;20.77;47.31;98707.28;5017658;28;123946;-76
2022/08/21 03:43:10;;;;;;;5.03;2.20;;;20.30;70.80;;;20.77;47.59;98707.28;5014967;28;124158;-75
2022/08/21 03:45:38;;;;;;;4.60;2.40;;;20.40;70.90;;;20.76;47.41;98712.09;5010313;28;109536;-76
2022/08/21 03:48:07;;;;;;;2.90;2.13;;;20.30;70.90;;;20.77;47.26;98721.34;5017493;28;108950;-77
2022/08/21 03:50:38;;;;;;;3.03;2.10;;;20.40;71.00;;;20.75;47.69;98718.94;5009127;28;124083;-80
2022/08/21 03:53:06;;;;;;;3.17;2.20;;;20.40;71.10;;;20.73;47.63;98722.09;5008282;28;123731;-75
2022/08/21 03:55:32;;;;;;;4.50;2.53;;;20.30;70.90;;;20.72;47.36;98717.69;5017549;28;109178;-79
2022/08/21 03:57:59;;;;;;;3.10;2.00;;;20.30;71.00;;;20.71;47.27;98727.31;5037016;27;109024;-75
2022/08/21 04:00:26;;;;;;;3.17;2.30;;;20.30;71.10;;;20.70;47.47;98717.25;5027917;27;124149;-75
2022/08/21 04:02:52;;;;;;;4.17;2.57;;;20.30;71.20;;;20.71;47.85;98727.31;5020165;27;124450;-76
2022/08/21 04:05:27;;;;;;;2.97;1.93;;;20.30;71.30;;;20.69;47.28;98724.06;5018201;28;109113;-76
2022/08/21 04:08:04;;;;;;;3.30;2.10;;;20.30;71.30;;;20.69;47.38;98726.88;5028858;28;109222;-76
2022/08/21 04:10:34;;;;;;;8.83;2.10;;;20.30;71.20;;;20.67;47.10;98720.84;5026342;27;123469;-78
2022/08/21 04:13:03;;;;;;;4.10;2.00;;;20.20;71.10;;;20.65;47.33;98726.00;5032874;27;123931;-77
2022/08/21 04:15:30;;;;;;;4.20;2.33;;;20.30;72.00;;;20.65;47.21;98728.81;5012464;28;110265;-77
2022/08/21 04:17:56;;;;;;;3.20;2.40;;;20.20;71.20;;;20.65;47.39;98728.81;5016534;28;109987;-77
2022/08/21 04:20:24;;;;;;;5.33;2.70;;;20.20;71.30;;;20.62;47.21;98732.41;5012386;28;124527;-76
2022/08/21 04:22:52;;;;;;;6.43;2.20;;;20.20;71.30;;;20.62;47.39;98729.59;5031192;28;123894;-76
2022/08/21 04:25:21;;;;;;;3.70;2.17;;;20.20;71.50;;;20.61;47.30;98733.59;5017426;27;109078;-77
2022/08/21 04:27:48;;;;;;;3.23;1.90;;;20.20;71.50;;;20.61;47.36;98738.41;5021831;28;108188;-77
2022/08/21 04:30:16;;;;;;;4.53;2.27;;;20.20;71.40;;;20.60;47.16;98745.19;5012749;28;126512;-77
2022/08/21 04:32:49;;;;;;;3.03;2.23;;;20.20;71.50;;;20.56;47.65;98738.75;5022301;28;124539;-77
2022/08/21 04:35:20;;;;;;;2.40;1.80;;;20.20;71.60;;;20.55;47.37;98739.91;5016768;28;108976;-78
2022/08/21 04:37:47;;;;;;;3.50;2.20;;;20.20;71.70;;;20.54;47.43;98750.34;5012462;28;108781;-76
2022/08/21 04:40:17;;;;;;;5.20;2.20;;;20.10;71.60;;;20.54;47.65;98761.56;5012052;28;124206;-80
2022/08/21 04:43:02;;;;;;;2.87;2.00;;;20.10;71.70;;;20.52;47.37;98752.69;5015624;28;124464;-77
2022/08/21 04:45:42;;;;;;;3.40;2.30;;;20.10;71.80;;;20.51;47.40;98762.28;5019313;28;108964;-77
2022/08/21 04:48:13;;;;;;;3.50;2.63;;;20.10;71.90;;;20.49;47.40;98762.66;5016216;28;108931;-78
2022/08/21 04:51:03;;;;;;;3.07;2.03;;;20.10;71.90;;;20.46;47.21;98760.63;5012209;28;123902;-76
2022/08/21 04:53:45;;;;;;;4.33;2.53;;;20.10;72.00;;;20.47;47.57;98755.81;5021585;28;123789;-76
2022/08/21 04:56:22;;;;;;;4.73;2.73;;;20.10;72.10;;;20.48;47.28;98760.25;5025753;28;109607;-76
2022/08/21 04:58:51;;;;;;;3.63;2.07;;;20.10;72.10;;;20.44;47.52;98765.00;5025808;28;108875;-76
2022/08/21 05:01:21;;;;;;;4.70;2.17;;;20.00;72.00;;;20.42;47.33;98756.16;5040740;27;124433;-76
2022/08/21 05:03:52;;;;;;;4.87;2.57;;;20.00;72.10;;;20.42;47.65;98765.38;5006771;28;122312;-76
2022/08/21 05:06:19;;;;;;;4.73;2.23;;;20.00;72.20;;;20.43;47.61;98771.81;5031694;28;110555;-77
2022/08/21 05:08:48;;;;;;;6.37;3.10;;;20.00;72.10;;;20.44;47.46;98767.81;5011731;28;109009;-77
2022/08/21 05:11:15;;;;;;;6.30;2.47;;;20.00;72.80;;;20.44;47.38;98765.78;5017796;28;124025;-78
2022/08/21 05:13:42;;;;;;;4.67;2.47;;;20.00;72.10;;;20.46;47.19;98759.81;5012975;28;124305;-78
2022/08/21 05:16:27;;;;;;;7.67;2.70;;;20.00;72.10;;;20.46;47.16;98755.00;5026644;28;109310;-77
2022/08/21 05:18:56;;;;;;;6.30;2.37;;;20.00;72.10;;;20.47;47.17;98761.44;5023016;28;108779;-77
2022/08/21 05:21:47;;;;;;;4.03;2.00;;;20.00;72.10;;;20.48;47.12;98768.69;5014843;28;124280;-76
2022/08/21 05:24:15;;;;;;;4.20;2.30;;;20.00;72.10;;;20.50;47.30;98772.72;5021500;28;123942;-86
2022/08/21 05:26:45;;;;;;;3.40;2.17;;;20.10;72.10;;;20.55;48.06;98779.22;5020096;28;109110;-76
2022/08/21 05:29:16;;;;;;;5.40;2.60;;;20.10;72.70;;;20.62;47.74;98780.13;5022884;28;108692;-76
2022/08/21 05:31:43;;;;;;;3.37;2.00;;;20.10;73.00;;;20.70;47.78;98787.44;5030784;28;124161;-80
2022/08/21 05:34:10;;;;;;;3.00;2.20;;;20.20;73.20;;;20.78;47.51;98782.75;5024217;28;122969;-76
2022/08/21 05:36:36;;;;;;;5.03;2.57;;;20.20;73.10;;;20.87;47.09;98779.63;5029689;28;108914;-78
2022/08/21 05:39:04;;;;;;;4.40;2.63;;;20.30;73.80;;;20.93;47.49;98784.56;5035445;28;108443;-78
2022/08/21 05:41:30;;;;;;;4.93;2.20;;;20.30;73.00;;;21.01;47.20;98788.25;5028359;28;123941;-78
2022/08/21 05:43:57;;;;;;;4.27;2.10;;;20.40;73.00;;;21.05;46.62;98777.06;5018773;28;124353;-77
2022/08/21 05:46:23;;;;;;;5.57;2.60;;;20.40;72.60;;;21.07;46.64;98792.34;4996093;28;109416;-78
2022/08/21 05:48:50;;;;;;;6.93;2.23;;;20.50;72.40;;;21.09;46.82;98789.97;5022118;28;108702;-76
2022/08/21 05:51:17;;;;;;;5.50;2.37;;;21.00;73.10;;;21.11;46.74;98786.75;5030475;28;124452;-79
2022/08/21 05:53:44;;;;;;;4.43;2.10;;;20.50;72.40;;;21.13;46.41;98790.00;5029493;27;123930;-76
2022/08/21 05:56:13;;;;;;;5.70;2.03;;;20.50;72.40;;;21.17;46.93;98788.84;5024348;28;109976;-76
2022/08/21 05:58:39;;;;;;;6.20;2.53;;;20.60;72.40;;;21.25;46.34;98789.75;5028842;28;109683;-77
2022/08/21 06:01:08;;;;;;;4.47;2.10;;;20.60;72.30;;;21.33;47.16;98788.63;5032699;28;124236;-77
2022/08/21 06:03:38;;;;;;;4.77;2.87;;;20.70;72.80;;;21.45;46.90;98787.56;5033914;27;122708;-77
2022/08/21 06:06:05;;;;;;;3.80;2.57;;;20.80;73.10;;;21.56;46.45;98788.47;5013740;28;109258;-77
2022/08/21 06:08:33;;;;;;;2.80;2.17;;;20.90;72.80;;;21.66;46.28;98791.78;5011143;28;108856;-78
2022/08/21 06:11:01;;;;;;;7.10;2.63;;;20.90;72.40;;;21.73;45.81;98786.22;5020935;28;124229;-78
2022/08/21 06:13:28;;;;;;;2.67;2.03;;;21.00;72.00;;;21.77;45.61;98787.06;5026907;28;123520;-77
2022/08/21 06:16:13;;;;;;;3.67;2.10;;;21.00;71.70;;;21.81;45.97;98783.06;5011186;28;109624;-77
2022/08/21 06:18:41;;;;;;;3.63;2.30;;;21.10;71.90;;;21.92;45.86;98773.94;5014867;28;109450;-76
2022/08/21 06:21:08;;;;;;;4.00;2.00;;;21.20;71.90;;;22.00;45.20;98778.41;5012459;28;124098;-77
2022/08/21 06:23:35;;;;;;;6.33;3.03;;;21.20;71.40;;;22.06;44.86;98776.88;5011060;28;123981;-77
2022/08/21 06:26:04;;;;;;;5.50;2.93;;;21.30;70.90;;;22.08;44.35;98785.72;5017161;28;109312;-79
2022/08/21 06:28:31;;;;;;;4.07;2.33;;;21.30;70.40;;;22.11;44.39;98786.94;5018684;28;108160;-79
2022/08/21 06:30:58;;;;;;;2.87;2.40;;;21.40;70.30;;;22.13;44.81;98779.72;5008641;28;123996;-80
2022/08/21 06:33:25;;;;;;;4.17;2.63;;;21.40;70.30;;;22.21;44.68;98778.59;5006480;28;123253;-77
2022/08/21 06:35:51;;;;;;;4.57;2.70;;;21.50;70.20;;;22.29;44.19;98776.66;5025630;28;109450;-77
2022/08/21 06:38:19;;;;;;;3.30;2.23;;;21.60;70.20;;;22.40;44.23;98769.06;5028596;28;109005;-77
2022/08/21 06:40:46;;;;;;;4.07;2.27;;;21.60;69.90;;;22.48;44.00;98779.19;5022955;27;124056;-76
2022/08/21 06:43:16;;;;;;;5.20;2.33;;;21.70;69.60;;;22.56;43.79;98779.22;5016705;28;123930;-76
2022/08/21 06:45:43;;;;;;;3.63;2.37;;;21.80;69.30;;;22.60;43.44;98769.63;5024605;28;110507;-77
2022/08/21 06:48:10;;;;;;;4.60;2.90;;;21.90;69.10;;;22.65;43.16;98774.06;5029479;28;109866;-84
2022/08/21 06:50:37;;;;;;;4.60;2.47;;;21.90;68.50;;;22.67;43.13;98764.00;5028573;27;124229;-76
2022/08/21 06:53:10;;;;;;;7.17;2.60;;;22.00;68.50;;;22.68;43.08;98762.00;5035100;27;124001;-79
2022/08/21 06:55:38;;;;;;;3.00;2.50;;;22.00;68.30;;;22.75;42.86;98759.22;5011883;28;109444;-76
2022/08/21 06:58:08;;;;;;;4.40;2.27;;;22.00;68.10;;;22.78;43.05;98766.06;5024002;27;109595;-77
2022/08/21 07:00:40;;;;;;;5.83;2.63;;;22.10;68.00;;;22.82;42.92;98770.53;5046081;27;123178;-84
2022/08/21 07:03:06;;;;;;;5.67;2.70;;;22.10;67.90;;;22.84;43.13;98765.31;5030267;27;123840;-85
2022/08/21 07:05:33;;;;;;;4.20;2.40;;;22.10;67.80;;;22.89;43.22;98756.47;5016009;28;109021;-76
2022/08/21 07:07:59;;;;;;;3.73;2.40;;;22.20;67.90;;;22.98;43.11;98764.59;5013266;28;108773;-76
2022/08/21 07:10:27;;;;;;;5.03;2.50;;;22.30;68.00;;;23.04;43.15;98754.53;5009030;28;124022;-85
2022/08/21 07:12:54;;;;;;;4.80;2.27;;;22.30;68.00;;;23.12;42.84;98761.00;5010174;28;124085;-77
2022/08/21 07:15:21;;;;;;;4.43;2.80;;;22.40;68.10;;;23.20;42.83;98754.19;5021777;28;109244;-85
2022/08/21 07:17:47;;;;;;;3.93;2.50;;;22.50;68.00;;;23.27;42.90;98756.22;5023796;28;108351;-76
2022/08/21 07:20:14;;;;;;;10.53;2.77;;;22.50;67.80;;;23.35;42.65;98764.28;5009227;28;124043;-76
2022/08/21 07:22:41;;;;;;;7.87;2.73;;;22.60;67.80;;;23.42;42.62;98759.88;5014560;28;123768;-77
2022/08/21 07:25:08;;;;;;;5.17;2.50;;;22.70;67.60;;;23.42;42.42;98754.22;5010413;28;109565;-83
2022/08/21 07:27:35;;;;;;;3.83;2.23;;;22.70;67.40;;;23.42;42.59;98754.22;5015912;28;108666;-76
2022/08/21 07:30:02;;;;;;;8.00;3.20;;;22.70;67.50;;;23.47;42.58;98757.47;5006557;28;123225;-76
2022/08/21 07:32:29;;;;;;;6.47;2.47;;;22.70;67.60;;;23.52;42.67;98757.06;5022069;28;123741;-85
2022/08/21 07:34:55;;;;;;;4.50;2.50;;;22.80;67.80;;;23.59;42.76;98748.63;5016598;28;110221;-79
2022/08/21 07:37:22;;;;;;;4.40;3.30;;;22.90;67.90;;;23.69;42.67;98746.19;5015400;28;109880;-75
2022/08/21 07:39:49;;;;;;;5.67;3.10;;;22.90;67.90;;;23.75;42.81;98747.44;5025033;27;123829;-75
2022/08/21 07:42:16;;;;;;;3.63;2.63;;;23.00;68.10;;;23.78;42.72;98749.47;5030875;28;123966;-77
2022/08/21 07:44:43;;;;;;;7.83;2.60;;;23.00;68.00;;;23.81;42.68;98743.81;5018168;28;109185;-86
2022/08/21 07:47:10;;;;;;;3.93;2.03;;;23.10;68.10;;;23.86;42.53;98750.25;5019842;28;109047;-84
2022/08/21 07:49:37;;;;;;;4.47;2.67;;;23.10;67.80;;;23.89;42.53;98746.66;5023043;28;124659;-78
2022/08/21 07:52:04;;;;;;;5.60;2.80;;;23.20;67.70;;;23.91;42.65;98741.41;5026480;28;122916;-84
2022/08/21 07:54:30;;;;;;;3.53;2.70;;;23.20;67.70;;;23.96;42.42;98746.63;5018883;28;109256;-77
2022/08/21 07:56:57;;;;;;;8.93;3.13;;;23.20;67.70;;;24.02;42.42;98736.56;5018761;27;108763;-83
2022/08/21 07:59:24;;;;;;;5.53;2.63;;;23.30;67.80;;;24.07;42.45;98736.13;5041472;27;124623;-79
2022/08/21 08:01:50;;;;;;;6.70;2.67;;;23.40;67.80;;;24.15;42.13;98739.75;5016328;28;123917;-77
2022/08/21 08:04:17;;;;;;;5.77;2.60;;;23.40;67.70;;;24.19;42.17;98730.09;5013609;28;109384;-77
2022/08/21 08:06:44;;;;;;;10.07;3.00;;;23.40;67.40;;;24.25;42.06;98734.09;5028271;28;109020;-84
2022/08/21 08:09:10;;;;;;;5.80;2.97;;;23.50;67.20;;;24.34;41.91;98732.88;5021627;28;123872;-86
2022/08/21 08:11:41;;;;;;;5.30;2.80;;;23.60;67.20;;;24.39;41.57;98723.97;5015291;28;122892;-75
2022/08/21 08:14:08;;;;;;;4.97;2.73;;;23.70;66.90;;;24.45;41.90;98731.69;5017540;28;109322;-79
2022/08/21 08:16:35;;;;;;;4.20;2.77;;;23.70;66.80;;;24.55;41.22;98730.03;5022893;28;108874;-77
2022/08/21 08:19:02;;;;;;;4.60;2.93;;;23.80;66.50;;;24.63;41.15;98734.44;5024195;28;124121;-84
2022/08/21 08:21:29;;;;;;;6.30;2.83;;;23.90;66.20;;;24.69;41.25;98735.63;5026570;28;124014;-84
2022/08/21 08:23:55;;;;;;;4.57;2.80;;;24.00;66.00;;;24.77;40.92;98716.63;5031525;28;109847;-84
2022/08/21 08:26:22;;;;;;;4.70;2.40;;;24.00;65.70;;;24.86;40.92;98727.50;5014146;28;109525;-84
2022/08/21 08:28:48;;;;;;;5.97;3.20;;;24.20;65.70;;;24.92;40.52;98720.19;5014237;28;124799;-77
2022/08/21 08:31:15;;;;;;;4.67;2.70;;;24.20;65.00;;;24.94;40.42;98714.94;5011900;28;123569;-82
2022/08/21 08:33:42;;;;;;;7.50;3.33;;;24.20;64.70;;;24.95;40.23;98713.72;5025553;28;109055;-77
2022/08/21 08:36:17;;;;;;;7.20;3.33;;;24.30;64.30;;;24.98;39.90;98707.22;5021722;28;108250;-77
2022/08/21 08:38:43;;;;;;;5.27;2.40;;;24.30;64.00;;;25.05;39.87;98706.41;5028513;27;124152;-74
2022/08/21 08:41:18;;;;;;;5.03;2.90;;;24.40;63.90;;;25.09;39.62;98702.34;5018247;27;122850;-78
2022/08/21 08:43:52;;;;;;;5.93;3.00;;;24.40;63.50;;;25.15;39.56;98699.91;4998990;28;108236;-85
2022/08/21 08:46:50;;;;;;;3.10;2.40;;;24.50;63.20;;;25.22;39.49;98704.72;5012691;28;108295;-80
2022/08/21 08:50:00;;;;;;;3.90;2.53;;;24.50;63.10;;;25.27;39.17;98695.78;5018028;27;123988;-83
2022/08/21 08:52:34;;;;;;;6.67;3.13;;;24.60;61.90;;;25.30;38.70;98695.75;5011356;28;123675;-81
2022/08/21 08:55:04;;;;;;;3.40;2.77;;;24.70;61.80;;;25.35;38.46;98688.88;5011673;28;109237;-82
2022/08/21 08:57:33;;;;;;;5.70;3.63;;;24.00;60.80;;;25.35;38.63;98694.53;5020767;27;109068;-83
2022/08/21 09:00:09;;;;;;;4.50;2.90;;;24.70;60.90;;;25.36;38.31;98687.63;5023240;27;124208;-76
2022/08/21 09:02:39;;;;;;;5.90;3.13;;;24.70;60.50;;;25.39;37.93;98686.81;5031925;28;123887;-80
2022/08/21 09:05:07;;;;;;;6.20;2.50;;;24.80;60.30;;;25.45;38.05;98690.81;5044989;27;113254;-82
2022/08/21 09:08:16;;;;;;;6.73;3.03;;;24.80;60.30;;;25.49;37.37;98683.09;5027285;28;114035;-79
2022/08/21 09:11:04;;;;;;;4.90;3.03;;;24.90;59.50;;;25.51;37.36;98680.66;5018549;28;123926;-79
2022/08/21 09:14:05;;;;;;;4.40;2.67;;;24.90;59.00;;;25.50;37.39;98684.72;5016259;28;123759;-85
2022/08/21 09:16:46;;;;;;;4.37;2.90;;;24.90;59.00;;;25.57;37.44;98686.66;5012121;28;115455;-80
2022/08/21 09:19:38;;;;;;;4.40;2.60;;;25.00;59.20;;;25.63;37.56;98672.88;5018169;28;115272;-79
2022/08/21 09:22:36;;;;;;;7.67;3.20;;;25.00;58.70;;;25.67;36.43;98676.50;5017109;27;124365;-80
2022/08/21 09:25:17;;;;;;;8.70;3.20;;;25.10;57.90;;;25.71;36.27;98680.09;5008651;28;123106;-80
2022/08/21 09:27:44;;;;;;;5.10;3.40;;;26.10;58.10;;;25.74;35.86;98676.44;5029958;28;114131;-81
2022/08/21 09:30:12;;;;;;;7.20;3.43;;;25.20;56.60;;;25.77;35.36;98669.94;5011597;28;113954;-81
2022/08/21 09:32:39;;;;;;;6.10;3.20;;;25.20;55.90;;;25.78;36.19;98671.53;5028071;28;124329;-85
2022/08/21 09:35:21;;;;;;;7.17;3.00;;;25.20;56.30;;;25.82;35.56;98663.84;5019111;28;123764;-82
2022/08/21 09:38:04;;;;;;;6.90;2.90;;;25.30;56.30;;;25.87;35.93;98666.25;5016398;28;114187;-81
2022/08/21 09:40:43;;;;;;;5.80;3.37;;;25.30;56.30;;;25.92;35.93;98665.75;5016634;28;113576;-79
2022/08/21 09:43:20;;;;;;;6.90;2.90;;;25.30;56.10;;;25.97;35.65;98659.66;5007346;28;124085;-81
2022/08/21 09:46:02;;;;;;;5.53;3.03;;;25.40;56.00;;;26.02;34.84;98657.59;5009795;28;123886;-84
2022/08/21 09:48:29;;;;;;;6.43;3.67;;;25.40;55.00;;;26.06;35.49;98649.84;5008711;28;114334;-84
2022/08/21 09:51:10;;;;;;;8.83;2.90;;;25.50;55.30;;;26.12;35.20;98660.31;5016364;28;113738;-79
2022/08/21 09:53:43;;;;;;;7.10;3.00;;;25.60;55.00;;;26.17;34.35;98648.53;5014276;28;123370;-82
2022/08/21 09:59:33;;;;;;;5.40;2.90;;;25.70;53.60;;;26.36;34.51;98649.94;5030215;28;114296;-77
2022/08/21 10:02:20;;;;;;;5.20;3.00;;;25.70;53.70;;;26.38;34.40;98649.50;5021555;28;113804;-85
2022/08/21 10:04:56;;;;;;;5.80;2.73;;;25.70;53.60;;;26.35;34.13;98651.16;5018211;28;123454;-82
2022/08/21 10:07:28;;;;;;;10.10;3.70;;;25.80;53.60;;;26.35;34.14;98651.16;5010372;28;123814;-84
2022/08/21 10:10:07;;;;;;;6.90;3.33;;;25.80;53.60;;;26.36;34.00;98644.28;5007044;28;115339;-78
2022/08/21 10:12:54;;;;;;;5.30;3.33;;;25.80;53.20;;;26.34;34.22;98638.22;5022251;28;114583;-80
2022/08/21 10:15:51;;;;;;;8.00;3.73;;;25.80;52.80;;;26.34;34.29;98643.88;5008342;28;124039;-81
2022/08/21 10:18:36;;;;;;;5.37;3.37;;;25.80;52.90;;;26.37;34.48;98642.22;5009865;28;124413;-82
2022/08/21 10:21:26;;;;;;;8.73;3.83;;;25.80;53.10;;;26.42;34.56;98641.78;5008939;28;113944;-86
2022/08/21 10:24:17;;;;;;;7.33;2.93;;;25.90;53.10;;;26.43;33.40;98624.31;5020885;28;113752;-80
2022/08/21 10:27:00;;;;;;;8.60;3.40;;;26.00;52.60;;;26.46;33.40;98622.69;5010504;28;124286;-80
2022/08/21 10:29:40;;;;;;;6.97;2.93;;;26.00;52.20;;;26.50;33.56;98629.13;5015876;28;123123;-77
2022/08/21 10:32:41;;;;;;;10.07;3.20;;;26.00;52.30;;;26.52;34.12;98631.53;5015470;28;114312;-82